Time;durP1;ratioP1;P1;durP2;ratioP2;P2;SDS_P1;SDS_P2;PMS_P1;PMS_P2;Temp;Humidity;BMP_temperature;BMP_pressure;BME280_temperature;BME280_humidity;BME280_pressure;Samples;Min_cycle;Max_cycle;Signal;HPM_P1;HPM_P2
2022/07/17 00:00:43;;;;;;;4.60;3.42;;;;;;;11.97;100.00;99327.16;5090328;28;20423;-51
2022/07/17 00:03:10;;;;;;;9.25;3.65;;;;;;;12.04;100.00;99334.72;5090173;28;20060;-50
2022/07/17 00:05:36;;;;;;;6.20;3.85;;;;;;;12.19;100.00;99347.50;5090116;28;20063;-50
2022/07/17 00:08:02;;;;;;;5.30;3.85;;;;;;;12.26;100.00;99358.56;5090298;28;20060;-51
2022/07/17 00:10:29;;;;;;;6.53;2.92;;;;;;;12.24;100.00;99364.47;5090053;28;20050;-51
2022/07/17 00:12:55;;;;;;;9.10;3.40;;;;;;;12.35;100.00;99363.81;5090116;28;20101;-51
2022/07/17 00:15:21;;;;;;;6.63;3.60;;;;;;;12.41;100.00;99365.09;5089840;28;20048;-50
2022/07/17 00:17:48;;;;;;;4.80;3.30;;;;;;;12.46;100.00;99379.31;5089816;28;20052;-54
2022/07/17 00:20:15;;;;;;;4.80;3.28;;;;;;;12.54;100.00;99376.66;5089820;28;20062;-53
2022/07/17 00:22:42;;;;;;;3.47;3.03;;;;;;;12.54;100.00;99395.91;5089918;28;20051;-51
2022/07/17 00:25:10;;;;;;;5.00;3.13;;;;;;;12.60;100.00;99388.91;5089699;28;20048;-50
2022/07/17 00:27:37;;;;;;;9.07;5.38;;;;;;;12.63;100.00;99391.72;5090042;28;20056;-51
2022/07/17 00:30:04;;;;;;;5.45;3.30;;;;;;;12.59;100.00;99387.31;5089798;28;20485;-53
2022/07/17 00:32:31;;;;;;;6.47;3.13;;;;;;;12.63;100.00;99388.16;5089829;28;20456;-53
2022/07/17 00:34:58;;;;;;;3.88;2.70;;;;;;;12.75;100.00;99407.19;5089898;28;20048;-51
2022/07/17 00:37:24;;;;;;;4.72;3.35;;;;;;;12.77;100.00;99404.06;5089829;28;20568;-51
2022/07/17 00:39:50;;;;;;;4.45;3.03;;;;;;;12.76;100.00;99417.00;5089992;28;20632;-52
2022/07/17 00:42:18;;;;;;;10.50;3.53;;;;;;;12.86;100.00;99413.63;5089954;28;20044;-52
2022/07/17 00:44:44;;;;;;;4.55;3.20;;;;;;;12.57;100.00;99422.66;5089858;28;20101;-50
2022/07/17 00:47:14;;;;;;;5.90;4.72;;;;;;;12.71;100.00;99403.59;5089782;28;20055;-52
2022/07/17 00:49:40;;;;;;;3.80;3.00;;;;;;;12.81;100.00;99413.16;5091564;28;20051;-52
2022/07/17 00:52:07;;;;;;;5.32;2.90;;;;;;;12.83;100.00;99408.88;5092962;28;20052;-53
2022/07/17 00:54:35;;;;;;;6.03;3.17;;;;;;;12.91;100.00;99413.28;5093342;28;20052;-54
2022/07/17 00:57:04;;;;;;;4.65;2.90;;;;;;;12.88;100.00;99418.75;5092950;28;20434;-50
2022/07/17 00:59:33;;;;;;;4.43;3.05;;;;;;;12.92;100.00;99428.59;5093233;28;20485;-52
2022/07/17 01:01:59;;;;;;;9.77;3.05;;;;;;;12.88;100.00;99416.78;5093237;28;20044;-51
2022/07/17 01:04:25;;;;;;;3.53;2.80;;;;;;;12.72;100.00;99416.16;5093010;28;20134;-52
2022/07/17 01:06:52;;;;;;;5.20;3.10;;;;;;;12.78;100.00;99397.38;5093099;28;20418;-51
2022/07/17 01:09:19;;;;;;;8.98;3.13;;;;;;;12.71;100.00;99396.13;5092744;28;20569;-54
2022/07/17 01:11:45;;;;;;;5.45;3.70;;;;;;;12.66;100.00;99393.72;5092807;28;20116;-52
2022/07/17 01:14:12;;;;;;;5.88;3.03;;;;;;;12.63;100.00;99390.91;5092810;28;20074;-53
2022/07/17 01:16:40;;;;;;;5.32;3.25;;;;;;;12.63;100.00;99388.16;5092760;28;20052;-51
2022/07/17 01:19:09;;;;;;;8.93;3.17;;;;;;;12.58;100.00;99382.97;5092669;28;20044;-51
2022/07/17 01:21:40;;;;;;;3.85;2.97;;;;;;;12.47;100.00;99377.34;5092574;28;20044;-51
2022/07/17 01:24:06;;;;;;;8.40;3.78;;;;;;;12.43;100.00;99354.53;5092607;28;20074;-52
2022/07/17 01:26:33;;;;;;;8.02;3.90;;;;;;;12.27;100.00;99353.91;5092719;28;20052;-54
2022/07/17 01:28:59;;;;;;;6.53;3.42;;;;;;;12.24;100.00;99327.94;5092834;28;20081;-51
2022/07/17 01:31:25;;;;;;;3.63;3.10;;;;;;;12.27;100.00;99320.91;5092437;28;20054;-52
2022/07/17 01:33:52;;;;;;;5.50;3.38;;;;;;;12.25;100.00;99321.28;5092686;28;20090;-51
2022/07/17 01:36:22;;;;;;;7.05;3.63;;;;;;;12.29;100.00;99318.56;5092397;28;20545;-53
2022/07/17 01:38:49;;;;;;;4.18;3.30;;;;;;;12.22;100.00;99309.06;5092660;28;20052;-51
2022/07/17 01:41:16;;;;;;;5.35;3.63;;;;;;;12.18;100.00;99293.69;5092130;28;20048;-51
2022/07/17 01:43:42;;;;;;;3.47;3.05;;;;;;;12.08;100.00;99281.38;5092441;28;20535;-51
2022/07/17 01:46:08;;;;;;;4.50;2.90;;;;;;;12.05;100.00;99273.88;5092128;28;20108;-51
2022/07/17 01:48:35;;;;;;;10.40;3.35;;;;;;;12.11;100.00;99266.13;5092183;28;20048;-51
2022/07/17 01:51:02;;;;;;;5.45;2.95;;;;;;;12.10;100.00;99262.59;5092278;28;20051;-54
2022/07/17 01:53:29;;;;;;;5.10;3.28;;;;;;;12.15;100.00;99265.00;5092019;28;20048;-50
2022/07/17 01:55:56;;;;;;;5.28;3.15;;;;;;;12.16;100.00;99265.78;5092183;28;20048;-51
2022/07/17 01:58:23;;;;;;;6.43;3.40;;;;;;;12.18;100.00;99266.22;5092134;28;20404;-51
2022/07/17 02:00:50;;;;;;;3.85;2.95;;;;;;;12.21;100.00;99270.97;5091491;28;20054;-51
2022/07/17 02:03:16;;;;;;;4.95;3.67;;;;;;;12.23;100.00;99283.19;5091896;28;20067;-51
2022/07/17 02:05:43;;;;;;;5.55;2.90;;;;;;;12.18;100.00;99272.50;5092195;28;20048;-52
2022/07/17 02:08:09;;;;;;;5.15;3.13;;;;;;;12.08;100.00;99267.66;5091970;28;20423;-54
2022/07/17 02:10:35;;;;;;;5.78;3.55;;;;;;;12.12;100.00;99249.25;5092132;28;20094;-52
2022/07/17 02:13:02;;;;;;;4.97;3.03;;;;;;;12.12;100.00;99249.25;5091790;28;20058;-53
2022/07/17 02:15:29;;;;;;;5.97;3.17;;;;;;;12.25;100.00;99266.28;5091635;28;20056;-54
2022/07/17 02:17:55;;;;;;;5.30;3.33;;;;;;;12.33;100.00;99286.41;5091674;28;20047;-55
2022/07/17 02:20:22;;;;;;;7.03;2.92;;;;;;;12.45;100.00;99291.69;5091746;28;20047;-53
2022/07/17 02:22:48;;;;;;;6.47;3.00;;;;;;;12.57;100.00;99294.19;5091956;28;20054;-53
2022/07/17 02:25:15;;;;;;;4.25;3.17;;;;;;;12.61;100.00;99300.53;5091699;28;20052;-51
2022/07/17 02:27:42;;;;;;;6.45;3.42;;;;;;;12.70;100.00;99322.25;5091912;28;20406;-51
2022/07/17 02:30:12;;;;;;;3.58;3.10;;;;;;;12.79;100.00;99335.69;5091528;28;20139;-52
2022/07/17 02:32:38;;;;;;;4.82;3.40;;;;;;;12.85;100.00;99354.25;5091814;28;20134;-54
2022/07/17 02:35:06;;;;;;;6.22;3.25;;;;;;;12.97;100.00;99360.69;5091523;28;20105;-52
2022/07/17 02:37:32;;;;;;;4.60;3.10;;;;;;;12.98;100.00;99376.78;5091564;28;20054;-52
2022/07/17 02:39:58;;;;;;;7.70;3.03;;;;;;;13.09;100.00;99382.41;5091471;28;20148;-55
2022/07/17 02:42:26;;;;;;;9.40;3.63;;;;;;;13.12;100.00;99398.97;5091422;28;20050;-54
2022/07/17 02:44:54;;;;;;;4.80;3.08;;;;;;;13.21;100.00;99400.66;5091190;28;20052;-52
2022/07/17 02:47:25;;;;;;;6.05;3.72;;;;;;;13.17;100.00;99403.38;5091266;28;20048;-54
2022/07/17 02:49:52;;;;;;;7.38;3.85;;;;;;;13.54;100.00;99417.16;5091577;28;20130;-51
2022/07/17 02:52:19;;;;;;;8.60;4.90;;;;;;;13.58;100.00;99431.75;5091347;28;20048;-54
2022/07/17 02:54:45;;;;;;;11.60;4.60;;;;;;;13.51;100.00;99441.91;5091452;28;20414;-51
2022/07/17 02:57:12;;;;;;;11.57;4.68;;;;;;;13.39;100.00;99438.25;5090963;28;20056;-53
2022/07/17 02:59:38;;;;;;;9.23;4.63;;;;;;;13.47;100.00;99447.38;5091542;28;20168;-52
2022/07/17 03:02:05;;;;;;;12.18;4.38;;;;;;;13.46;100.00;99437.50;5091065;28;20052;-51
2022/07/17 03:04:32;;;;;;;9.85;3.95;;;;;;;13.54;100.00;99436.44;5091062;28;20514;-55
2022/07/17 03:06:58;;;;;;;4.43;3.25;;;;;;;13.55;100.00;99423.44;5091031;28;20055;-52
2022/07/17 03:09:24;;;;;;;7.53;2.67;;;;;;;13.51;100.00;99412.41;5090839;28;20052;-53
2022/07/17 03:11:51;;;;;;;6.63;2.92;;;;;;;13.49;100.00;99389.94;5090202;28;20048;-52
2022/07/17 03:14:17;;;;;;;3.53;2.40;;;;;;;13.65;100.00;99384.97;5090564;28;20066;-52
2022/07/17 03:16:43;;;;;;;4.65;2.42;;;;;;;13.63;100.00;99390.09;5091025;28;20051;-53
2022/07/17 03:19:10;;;;;;;3.58;2.63;;;;;;;13.92;100.00;99367.47;5090652;28;20052;-51
2022/07/17 03:21:37;;;;;;;5.53;2.70;;;;;;;14.03;100.00;99380.19;5091070;28;20449;-51
2022/07/17 03:24:03;;;;;;;6.22;2.90;;;;;;;13.96;100.00;99401.38;5090773;28;20070;-51
2022/07/17 03:26:30;;;;;;;9.60;3.50;;;;;;;14.18;100.00;99430.69;5090927;28;20052;-51
2022/07/17 03:28:56;;;;;;;5.28;3.22;;;;;;;14.13;100.00;99418.06;5090709;28;20048;-51
2022/07/17 03:31:22;;;;;;;7.55;3.78;;;;;;;14.09;100.00;99416.44;5090767;28;20050;-55
2022/07/17 03:33:48;;;;;;;10.45;4.45;;;;;;;13.83;100.00;99428.44;5090518;28;20058;-54
2022/07/17 03:36:15;;;;;;;11.90;4.15;;;;;;;13.88;100.00;99444.63;5090580;28;20054;-55
2022/07/17 03:38:42;;;;;;;8.10;4.57;;;;;;;13.94;100.00;99445.88;5090663;28;20052;-54
2022/07/17 03:41:08;;;;;;;12.07;5.13;;;;;;;13.96;100.00;99446.28;5090562;28;20104;-55
2022/07/17 03:43:34;;;;;;;15.13;5.53;;;;;;;13.77;100.00;99446.50;5090905;28;20051;-55
2022/07/17 03:46:00;;;;;;;15.15;6.13;;;;;;;13.55;100.00;99456.50;5090740;28;20055;-54
2022/07/17 03:48:27;;;;;;;10.30;5.22;;;;;;;13.58;100.00;99462.03;5090834;28;20130;-53
2022/07/17 03:50:53;;;;;;;15.93;5.85;;;;;;;13.72;100.00;99475.16;5090353;28;20101;-51
2022/07/17 03:53:19;;;;;;;16.00;5.93;;;;;;;13.87;100.00;99481.63;5090512;28;20441;-54
2022/07/17 03:55:46;;;;;;;11.98;5.35;;;;;;;14.09;100.00;99488.94;5090005;28;20056;-53
2022/07/17 03:58:12;;;;;;;12.82;5.95;;;;;;;14.12;100.00;99482.63;5090603;28;20048;-52
2022/07/17 04:00:38;;;;;;;14.35;8.80;;;;;;;14.04;100.00;99477.44;5090181;28;20048;-53
2022/07/17 04:03:05;;;;;;;9.05;4.65;;;;;;;14.03;100.00;99476.66;5090263;28;20058;-52
2022/07/17 04:05:31;;;;;;;12.02;5.20;;;;;;;14.17;100.00;99478.75;5090174;28;20422;-52
2022/07/17 04:07:58;;;;;;;12.57;7.30;;;;;;;14.26;100.00;99475.66;5090061;28;20473;-55
2022/07/17 04:10:24;;;;;;;8.38;4.53;;;;;;;14.32;100.00;99469.41;5090225;28;20047;-52
2022/07/17 04:12:51;;;;;;;6.28;3.80;;;;;;;14.45;100.00;99460.81;5089969;28;20052;-51
2022/07/17 04:15:49;;;;;;;10.85;3.30;;;;;;;14.57;100.00;99453.06;5090270;28;20052;-52
2022/07/17 04:18:03;;;;;;;5.57;2.88;;;;;;;14.61;100.00;99436.53;5090059;28;20048;-54
2022/07/17 04:20:30;;;;;;;7.15;3.47;;;;;;;14.56;100.00;99442.41;5090497;28;20056;-54
2022/07/17 04:22:57;;;;;;;5.38;2.60;;;;;;;14.89;100.00;99429.56;5090070;28;20048;-52
2022/07/17 04:25:23;;;;;;;7.90;2.88;;;;;;;15.45;100.00;99395.81;5089794;28;20059;-53
2022/07/17 04:27:51;;;;;;;6.93;2.45;;;;;;;15.45;100.00;99334.25;5090042;28;20052;-54
2022/07/17 04:30:17;;;;;;;2.95;1.85;;;;;;;15.42;100.00;99277.81;5089889;28;20578;-53
2022/07/17 04:32:43;;;;;;;5.88;2.95;;;;;;;15.85;100.00;99222.53;5089878;28;20083;-53
2022/07/17 04:35:09;;;;;;;3.45;2.00;;;;;;;15.98;100.00;99182.19;5090069;28;20583;-54
2022/07/17 04:37:35;;;;;;;3.65;1.90;;;;;;;16.50;100.00;99068.13;5089944;28;20059;-54
2022/07/17 04:40:02;;;;;;;2.78;1.90;;;;;;;16.79;100.00;98887.94;5089624;28;20058;-53
2022/07/17 04:42:28;;;;;;;2.97;1.92;;;;;;;17.24;100.00;98774.22;5090016;28;20432;-53
2022/07/17 04:44:55;;;;;;;5.15;2.25;;;;;;;17.23;100.00;98661.84;5089638;28;20048;-53
2022/07/17 04:47:21;;;;;;;4.00;2.00;;;;;;;16.97;100.00;98713.31;5089813;28;20400;-55
2022/07/17 04:49:48;;;;;;;2.85;1.80;;;;;;;16.89;100.00;98707.88;5089434;28;20593;-55
2022/07/17 04:52:14;;;;;;;6.45;2.00;;;;;;;17.43;100.00;98574.03;5089749;28;20056;-55
2022/07/17 04:54:40;;;;;;;4.30;1.70;;;;;;;17.04;100.00;98613.50;5089544;28;20058;-55
2022/07/17 04:57:07;;;;;;;2.08;1.42;;;;;;;17.41;100.00;98665.09;5089519;28;20109;-55
2022/07/17 04:59:36;;;;;;;3.85;1.50;;;;;;;17.02;100.00;98660.22;5089404;28;20052;-53
2022/07/17 05:02:04;;;;;;;3.58;1.42;;;;;;;16.75;100.00;98701.75;5089442;28;20051;-52
2022/07/17 05:04:30;;;;;;;6.40;1.75;;;;;;;17.14;100.00;98724.09;5089346;28;20116;-54
2022/07/17 05:06:56;;;;;;;4.63;1.70;;;;;;;16.98;100.00;98703.78;5089422;28;20092;-53
2022/07/17 05:09:22;;;;;;;3.22;1.75;;;;;;;16.81;100.00;98736.84;5089398;28;20044;-55
2022/07/17 05:11:49;;;;;;;5.00;1.60;;;;;;;16.77;100.00;98804.56;5089293;28;20044;-56
2022/07/17 05:14:15;;;;;;;3.67;1.80;;;;;;;16.65;100.00;98822.44;5089452;28;20469;-51
2022/07/17 05:16:41;;;;;;;2.80;1.75;;;;;;;16.39;100.00;98888.38;5089050;28;20410;-52
2022/07/17 05:19:08;;;;;;;5.82;1.75;;;;;;;16.46;100.00;98985.13;5089514;28;20156;-53
2022/07/17 05:21:34;;;;;;;5.53;1.60;;;;;;;16.57;100.00;99001.63;5089430;28;20052;-52
2022/07/17 05:24:01;;;;;;;3.63;2.38;;;;;;;16.34;100.00;99015.28;5089482;28;20043;-52
2022/07/17 05:26:27;;;;;;;3.70;1.65;;;;;;;16.28;100.00;99066.69;5089180;28;20429;-54
2022/07/17 05:28:53;;;;;;;2.95;1.77;;;;;;;16.51;100.00;99035.69;5088996;28;20055;-52
2022/07/17 05:31:19;;;;;;;1.77;1.58;;;;;;;17.17;100.00;98889.47;5088932;28;20155;-54
2022/07/17 05:33:46;;;;;;;3.20;1.60;;;;;;;16.22;100.00;98922.50;5088854;28;20108;-53
2022/07/17 05:36:13;;;;;;;2.45;1.02;;;;;;;16.29;100.00;98963.91;5090432;28;20047;-52
2022/07/17 05:38:39;;;;;;;3.05;1.70;;;;;;;16.43;100.00;98980.41;5092418;28;20499;-55
2022/07/17 05:41:06;;;;;;;5.97;1.35;;;;;;;16.30;100.00;98998.72;5092494;28;20048;-55
2022/07/17 05:43:32;;;;;;;2.25;1.30;;;;;;;16.35;100.00;99058.34;5092361;28;20064;-53
2022/07/17 05:45:58;;;;;;;3.85;1.60;;;;;;;16.10;100.00;99034.41;5092159;28;20078;-55
2022/07/17 05:48:25;;;;;;;5.18;1.42;;;;;;;16.48;100.00;99098.16;5092166;28;20083;-54
2022/07/17 05:50:53;;;;;;;2.30;1.30;;;;;;;17.94;100.00;98837.25;5092335;28;20051;-55
2022/07/17 05:53:20;;;;;;;3.55;1.30;;;;;;;19.01;100.00;98543.53;5092184;28;20056;-55
2022/07/17 05:55:46;;;;;;;4.47;1.52;;;;;;;19.18;100.00;98180.31;5092232;28;20400;-55
2022/07/17 05:58:13;;;;;;;5.80;1.67;;;;;;;18.90;100.00;98209.78;5092064;28;20177;-52
2022/07/17 06:00:39;;;;;;;3.38;1.73;;;;;;;18.47;100.00;98256.22;5091839;28;20048;-56
2022/07/17 06:03:06;;;;;;;1.75;1.17;;;;;;;18.28;100.00;98334.84;5092372;28;20052;-54
2022/07/17 06:05:32;;;;;;;1.52;1.00;;;;;;;18.08;100.00;98346.06;5091991;28;20051;-56
2022/07/17 06:07:59;;;;;;;4.20;1.40;;;;;;;18.19;100.00;98467.84;5092109;28;20574;-54
2022/07/17 06:10:27;;;;;;;1.90;1.30;;;;;;;18.45;100.00;98336.34;5091927;28;20052;-55
2022/07/17 06:12:53;;;;;;;3.40;1.45;;;;;;;18.81;100.00;98274.31;5092178;28;20135;-55
2022/07/17 06:15:20;;;;;;;2.42;1.25;;;;;;;19.29;100.00;98158.50;5091791;28;20414;-55
2022/07/17 06:17:46;;;;;;;1.67;1.20;;;;;;;19.86;100.00;98098.19;5091981;28;20056;-52
2022/07/17 06:20:13;;;;;;;3.67;1.45;;;;;;;20.39;100.00;98036.13;5091693;28;20055;-52
2022/07/17 06:22:39;;;;;;;2.67;1.50;;;;;;;20.63;100.00;98011.34;5091768;28;20044;-56
2022/07/17 06:25:06;;;;;;;2.28;1.55;;;;;;;21.01;100.00;97988.63;5091697;28;20047;-56
2022/07/17 06:27:33;;;;;;;3.60;1.50;;;;;;;20.96;100.00;98002.41;5091597;28;20056;-56
2022/07/17 06:30:00;;;;;;;1.73;1.30;;;;;;;21.03;100.00;97999.34;5091688;28;20058;-54
2022/07/17 06:32:26;;;;;;;5.25;1.90;;;;;;;20.20;100.00;98019.38;5091595;28;20523;-55
2022/07/17 06:34:52;;;;;;;1.63;1.52;;;;;;;20.63;100.00;98017.69;5091624;28;20052;-55
2022/07/17 06:37:19;;;;;;;1.63;1.33;;;;;;;20.14;100.00;98012.84;5091393;28;20052;-54
2022/07/17 06:39:45;;;;;;;3.00;1.50;;;;;;;18.61;100.00;98066.28;5091762;28;20044;-52
2022/07/17 06:42:11;;;;;;;1.50;1.40;;;;;;;18.41;100.00;98149.75;5091280;28;20134;-54
2022/07/17 06:44:38;;;;;;;1.30;1.15;;;;;;;18.76;100.00;98116.59;5091675;28;20104;-52
2022/07/17 06:47:04;;;;;;;1.88;1.30;;;;;;;18.75;100.00;98151.91;5091168;28;20138;-52
2022/07/17 06:49:31;;;;;;;1.40;1.10;;;;;;;18.94;100.00;98141.03;5091483;28;20052;-53
2022/07/17 06:51:57;;;;;;;3.55;1.52;;;;;;;18.67;100.00;98177.53;5091197;28;20579;-52
2022/07/17 06:54:25;;;;;;;2.55;1.38;;;;;;;18.37;100.00;98206.59;5091212;28;20499;-54
2022/07/17 06:56:52;;;;;;;3.72;1.70;;;;;;;18.13;100.00;98284.53;5091015;28;20139;-52
2022/07/17 06:59:19;;;;;;;4.47;1.23;;;;;;;18.11;100.00;98221.16;5091022;28;20044;-52
2022/07/17 07:01:46;;;;;;;1.40;1.20;;;;;;;18.59;100.00;98229.69;5090981;28;20559;-54
2022/07/17 07:04:12;;;;;;;4.65;1.40;;;;;;;18.83;100.00;98259.97;5091058;28;20044;-55
2022/07/17 07:06:39;;;;;;;1.80;1.30;;;;;;;19.07;100.00;98246.56;5091244;28;20056;-55
2022/07/17 07:09:05;;;;;;;3.70;1.80;;;;;;;18.96;100.00;98150.47;5091021;28;20048;-53
2022/07/17 07:11:32;;;;;;;2.97;1.33;;;;;;;19.11;100.00;98170.22;5090965;28;20048;-55
2022/07/17 07:13:58;;;;;;;1.30;1.20;;;;;;;19.28;100.00;98193.84;5091055;28;20121;-53
2022/07/17 07:16:24;;;;;;;5.65;1.60;;;;;;;19.38;100.00;98213.41;5090801;28;20055;-53
2022/07/17 07:18:51;;;;;;;1.23;1.13;;;;;;;19.40;100.00;98175.63;5090916;28;20048;-54
2022/07/17 07:21:17;;;;;;;2.00;1.40;;;;;;;19.80;100.00;98121.47;5090934;28;20052;-52
2022/07/17 07:23:44;;;;;;;3.20;1.35;;;;;;;20.13;100.00;98074.53;5090842;28;20143;-56
2022/07/17 07:26:10;;;;;;;10.40;1.45;;;;;;;20.02;100.00;98088.84;5090823;28;20423;-54
2022/07/17 07:28:36;;;;;;;2.67;1.30;;;;;;;20.41;100.00;98078.22;5091093;28;20393;-54
2022/07/17 07:31:03;;;;;;;2.10;1.15;;;;;;;20.82;100.00;98065.84;5090950;28;20411;-54
2022/07/17 07:33:29;;;;;;;8.40;1.60;;;;;;;21.14;100.00;98053.34;5090765;28;20044;-56
2022/07/17 07:35:56;;;;;;;7.80;1.75;;;;;;;21.32;100.00;98062.97;5090507;28;20104;-55
2022/07/17 07:38:22;;;;;;;1.63;1.25;;;;;;;22.06;100.00;98063.69;5090809;28;20060;-56
2022/07/17 07:40:48;;;;;;;1.40;1.30;;;;;;;22.15;100.00;98102.75;5090565;28;20138;-55
2022/07/17 07:43:15;;;;;;;1.65;1.13;;;;;;;21.48;100.00;98114.88;5090730;28;20052;-55
2022/07/17 07:45:41;;;;;;;4.53;1.55;;;;;;;21.51;100.00;98111.94;5090372;28;20083;-56
2022/07/17 07:48:07;;;;;;;1.42;1.30;;;;;;;21.52;100.00;98135.78;5090541;28;20131;-55
2022/07/17 07:50:33;;;;;;;3.65;1.77;;;;;;;21.64;100.00;98144.50;5090451;28;20052;-52
2022/07/17 07:53:00;;;;;;;4.15;1.60;;;;;;;21.22;100.00;98142.22;5090273;28;20135;-53
2022/07/17 07:55:27;;;;;;;3.08;1.95;;;;;;;21.92;100.00;98140.44;5090578;28;20055;-56
2022/07/17 07:58:02;;;;;;;2.33;1.50;;;;;;;22.17;100.00;98236.28;5090125;28;20052;-56
2022/07/17 08:00:29;;;;;;;7.93;1.80;;;;;;;22.83;100.00;98219.72;5090100;28;20048;-56
2022/07/17 08:02:55;;;;;;;1.70;1.40;;;;;;;23.30;100.00;98270.66;5090441;28;20062;-55
2022/07/17 08:05:21;;;;;;;1.92;1.38;;;;;;;23.47;100.00;98297.75;5090638;28;20457;-56
2022/07/17 08:07:48;;;;;;;3.83;1.48;;;;;;;21.99;100.00;98240.59;5090135;28;20056;-56
2022/07/17 08:10:15;;;;;;;2.00;1.63;;;;;;;21.53;100.00;98206.31;5090071;28;20048;-55
2022/07/17 08:12:41;;;;;;;1.38;1.27;;;;;;;21.51;100.00;98169.72;5090060;28;20048;-54
2022/07/17 08:15:08;;;;;;;5.10;1.42;;;;;;;22.26;100.00;98178.44;5090125;28;20052;-55
2022/07/17 08:17:34;;;;;;;2.47;1.40;;;;;;;22.38;100.00;98220.59;5090174;28;20056;-55
2022/07/17 08:20:00;;;;;;;4.65;1.33;;;;;;;22.62;100.00;98192.75;5089768;28;20048;-54
2022/07/17 08:22:27;;;;;;;1.83;1.50;;;;;;;22.62;100.00;98201.91;5090436;28;20055;-53
2022/07/17 08:24:53;;;;;;;2.97;1.48;;;;;;;21.83;100.00;98166.34;5089489;28;20052;-55
2022/07/17 08:27:21;;;;;;;15.13;1.95;;;;;;;21.71;100.00;98133.03;5089245;28;20135;-53
2022/07/17 08:29:47;;;;;;;12.95;1.80;;;;;;;22.03;100.00;98132.38;5088979;28;20052;-52
2022/07/17 08:32:13;;;;;;;2.65;1.70;;;;;;;21.38;100.00;98156.69;5089084;28;20143;-52
2022/07/17 08:34:39;;;;;;;3.72;1.20;;;;;;;21.58;100.00;98166.63;5089434;28;20047;-55
2022/07/17 08:37:06;;;;;;;7.75;1.65;;;;;;;21.93;100.00;98169.91;5090018;28;20052;-53
2022/07/17 08:39:32;;;;;;;4.80;1.67;;;;;;;22.33;100.00;98188.50;5089771;28;20135;-53
2022/07/17 08:41:59;;;;;;;2.72;1.40;;;;;;;22.05;100.00;98202.44;5089811;28;20127;-53
2022/07/17 08:44:26;;;;;;;1.55;1.30;;;;;;;21.85;100.00;98185.41;5089833;28;20131;-56
2022/07/17 08:46:54;;;;;;;4.05;1.80;;;;;;;22.05;100.00;98177.31;5089622;28;20503;-52
2022/07/17 08:49:21;;;;;;;9.93;1.70;;;;;;;21.74;100.00;98116.13;5089477;28;20430;-56
2022/07/17 08:51:48;;;;;;;3.88;1.50;;;;;;;20.76;100.00;98156.81;5089622;28;20054;-53
2022/07/17 08:54:14;;;;;;;2.85;1.63;;;;;;;21.24;100.00;98159.28;5089640;28;20491;-53
2022/07/17 08:56:41;;;;;;;5.55;1.45;;;;;;;20.94;100.00;98156.09;5089309;28;20063;-53
2022/07/17 08:59:07;;;;;;;4.07;1.50;;;;;;;21.21;100.00;98179.72;5089812;28;20052;-52
2022/07/17 09:01:34;;;;;;;4.20;1.48;;;;;;;21.48;100.00;98149.13;5089488;28;20418;-54
2022/07/17 09:04:06;;;;;;;3.70;1.88;;;;;;;21.77;100.00;98178.59;5089338;28;20503;-54
2022/07/17 09:06:32;;;;;;;2.95;1.55;;;;;;;21.12;100.00;98186.78;5089425;28;20052;-52
2022/07/17 09:09:04;;;;;;;4.75;1.73;;;;;;;21.87;100.00;98185.72;5089391;28;20044;-53
2022/07/17 09:11:41;;;;;;;7.20;1.63;;;;;;;21.68;100.00;98195.31;5093015;28;20497;-57
2022/07/17 09:14:07;;;;;;;6.32;1.80;;;;;;;21.82;100.00;98175.94;5092776;28;20575;-54
2022/07/17 09:16:36;;;;;;;3.30;1.42;;;;;;;21.81;100.00;98143.69;5092506;28;20052;-54
2022/07/17 09:19:02;;;;;;;2.70;1.40;;;;;;;21.64;100.00;98172.38;5092832;28;20056;-53
2022/07/17 09:21:31;;;;;;;6.45;1.88;;;;;;;22.02;100.00;98197.78;5092883;28;20527;-53
2022/07/17 09:23:58;;;;;;;6.20;1.73;;;;;;;22.06;100.00;98164.94;5092756;28;20051;-56
2022/07/17 09:26:25;;;;;;;3.88;1.42;;;;;;;21.84;100.00;98190.19;5092751;28;20071;-54
2022/07/17 09:28:51;;;;;;;4.95;1.67;;;;;;;21.89;100.00;98188.03;5092589;28;20058;-53
2022/07/17 09:31:25;;;;;;;1.58;1.48;;;;;;;21.66;100.00;98179.06;5092773;28;20051;-53
2022/07/17 09:33:52;;;;;;;5.97;1.30;;;;;;;21.74;100.00;98191.44;5092457;28;20507;-56
2022/07/17 09:36:18;;;;;;;5.32;1.80;;;;;;;21.64;100.00;98208.63;5092565;28;20055;-53
2022/07/17 09:38:44;;;;;;;3.50;1.45;;;;;;;22.34;100.00;98204.00;5092512;28;20138;-54
2022/07/17 09:41:12;;;;;;;6.07;1.80;;;;;;;22.69;100.00;98299.38;5092346;28;20396;-54
2022/07/17 09:43:50;;;;;;;5.07;1.83;;;;;;;22.83;100.00;98365.03;5092320;28;20052;-55
2022/07/17 09:46:19;;;;;;;6.70;1.92;;;;;;;22.77;100.00;98373.25;5092409;28;20048;-55
2022/07/17 09:48:49;;;;;;;5.45;2.15;;;;;;;22.91;100.00;98304.75;5092588;28;20054;-53
2022/07/17 09:51:22;;;;;;;3.83;1.70;;;;;;;23.48;100.00;98298.53;5092570;28;20051;-56
2022/07/17 09:53:50;;;;;;;2.55;1.95;;;;;;;24.09;100.00;98323.53;5092330;28;20070;-54
2022/07/17 09:56:19;;;;;;;4.57;1.80;;;;;;;24.69;100.00;98360.91;5092124;28;20050;-56
2022/07/17 09:58:49;;;;;;;6.18;1.98;;;;;;;24.60;100.00;98412.22;5092563;28;20400;-54
2022/07/17 10:01:16;;;;;;;9.13;2.53;;;;;;;25.11;100.00;98395.13;5092016;28;20139;-56
2022/07/17 10:03:43;;;;;;;14.13;2.55;;;;;;;24.33;100.00;98405.53;5092013;28;20052;-54
2022/07/17 10:06:10;;;;;;;8.02;2.05;;;;;;;24.12;100.00;98370.19;5092013;28;20066;-56
2022/07/17 10:08:38;;;;;;;6.60;1.67;;;;;;;23.65;100.00;98324.09;5091927;28;20048;-56
2022/07/17 10:11:05;;;;;;;3.33;1.63;;;;;;;24.24;100.00;98250.78;5092146;28;20048;-53
2022/07/17 10:13:31;;;;;;;2.95;1.75;;;;;;;24.78;100.00;98363.66;5092030;28;20434;-53
2022/07/17 10:15:58;;;;;;;3.42;1.50;;;;;;;25.05;100.00;98321.31;5092013;28;20091;-56
2022/07/17 10:18:35;;;;;;;2.40;1.42;;;;;;;25.15;100.00;98355.66;5091874;28;20048;-56
2022/07/17 10:21:07;;;;;;;3.63;1.25;;;;;;;24.74;100.00;98377.84;5092013;28;20048;-56
2022/07/17 10:23:34;;;;;;;2.55;1.50;;;;;;;23.90;100.00;98322.91;5091683;28;20499;-56
2022/07/17 10:26:01;;;;;;;4.72;1.40;;;;;;;23.70;100.00;98354.25;5092022;28;20391;-56
2022/07/17 10:28:39;;;;;;;3.20;1.60;;;;;;;23.14;100.00;98280.19;5091816;28;20082;-56
2022/07/17 10:31:05;;;;;;;4.78;1.77;;;;;;;22.98;100.00;98254.13;5091775;28;20143;-55
2022/07/17 10:33:32;;;;;;;2.20;1.40;;;;;;;22.83;100.00;98219.72;5091790;28;20135;-56
2022/07/17 10:35:59;;;;;;;2.10;1.52;;;;;;;22.67;100.00;98248.00;5091756;28;20500;-56
2022/07/17 10:38:27;;;;;;;2.30;1.50;;;;;;;22.90;100.00;98257.72;5091717;28;20504;-54
2022/07/17 10:41:01;;;;;;;3.28;1.55;;;;;;;22.76;100.00;98279.50;5091579;28;20131;-55
2022/07/17 10:43:27;;;;;;;2.00;1.17;;;;;;;23.05;100.00;98221.50;5091399;28;20557;-55
2022/07/17 10:45:54;;;;;;;3.28;1.73;;;;;;;22.86;100.00;98246.72;5091481;28;20105;-57
2022/07/17 10:48:22;;;;;;;1.98;1.20;;;;;;;22.18;100.00;98235.81;5091295;28;20052;-56
2022/07/17 10:50:51;;;;;;;2.20;1.50;;;;;;;22.07;100.00;98224.31;5091250;28;20048;-56
2022/07/17 10:53:20;;;;;;;4.80;1.40;;;;;;;21.94;100.00;98251.59;5091525;28;20108;-53
2022/07/17 10:55:50;;;;;;;1.90;1.40;;;;;;;21.77;100.00;98281.81;5091230;28;20094;-54
2022/07/17 10:58:20;;;;;;;3.53;1.40;;;;;;;21.39;100.00;98207.66;5091487;28;20059;-54
2022/07/17 11:01:00;;;;;;;2.03;1.50;;;;;;;21.68;100.00;98212.81;5091114;28;20105;-53
2022/07/17 11:03:26;;;;;;;3.05;1.25;;;;;;;21.73;100.00;98228.19;5091185;28;20056;-55
2022/07/17 11:05:53;;;;;;;5.90;1.50;;;;;;;21.36;100.00;98242.06;5091177;28;20048;-55
2022/07/17 11:08:19;;;;;;;3.22;1.35;;;;;;;21.70;100.00;98271.72;5091163;28;20507;-56
2022/07/17 11:10:47;;;;;;;2.05;1.20;;;;;;;21.74;100.00;98272.34;5091009;28;20047;-56
2022/07/17 11:13:15;;;;;;;2.92;0.90;;;;;;;21.48;100.00;98299.69;5090835;28;20048;-56
2022/07/17 11:15:44;;;;;;;4.93;1.50;;;;;;;21.80;100.00;98258.56;5090798;28;20048;-56
2022/07/17 11:18:15;;;;;;;1.38;1.27;;;;;;;21.62;100.00;98284.38;5091057;28;20052;-55
2022/07/17 11:20:50;;;;;;;3.05;1.50;;;;;;;22.06;100.00;98284.94;5091161;28;20044;-54
2022/07/17 11:23:16;;;;;;;3.25;1.40;;;;;;;22.27;100.00;98246.97;5090921;28;20415;-53